Time;durP1;ratioP1;P1;durP2;ratioP2;P2;SDS_P1;SDS_P2;PMS_P1;PMS_P2;Temp;Humidity;BMP_temperature;BMP_pressure;BME280_temperature;BME280_humidity;BME280_pressure;Samples;Min_cycle;Max_cycle;Signal;HPM_P1;HPM_P2
2022/03/22 00:07:23;;;;;;;6.05;3.30;;;10.10;59.60;;;;;;21105325;28;20027;-78
2022/03/22 00:17:24;;;;;;;3.95;2.75;;;10.10;59.60;;;;;;21137753;28;20042;-77
2022/03/22 00:27:25;;;;;;;5.65;2.63;;;10.10;59.60;;;;;;21132879;28;20469;-78
2022/03/22 00:37:26;;;;;;;6.00;3.13;;;10.10;59.60;;;;;;21120650;28;20680;-78
2022/03/22 00:47:27;;;;;;;5.20;3.25;;;10.10;59.50;;;;;;21119683;28;20028;-78
2022/03/22 00:57:27;;;;;;;4.10;2.58;;;10.10;59.50;;;;;;21152824;28;20503;-78
2022/03/22 01:07:29;;;;;;;5.05;3.20;;;10.10;59.40;;;;;;21118627;28;20024;-78
2022/03/22 01:17:31;;;;;;;6.70;3.25;;;10.00;59.30;;;;;;21133695;28;20071;-78
2022/03/22 01:27:32;;;;;;;7.10;3.70;;;10.00;59.30;;;;;;21117498;28;20035;-78
2022/03/22 01:37:33;;;;;;;5.47;2.97;;;10.00;59.20;;;;;;21131208;28;20393;-78
2022/03/22 01:47:35;;;;;;;6.22;3.72;;;10.00;59.20;;;;;;21131590;28;20032;-78
2022/03/22 01:57:35;;;;;;;4.65;2.90;;;10.00;59.20;;;;;;21132559;28;20036;-78
2022/03/22 02:07:37;;;;;;;6.05;3.13;;;10.00;59.10;;;;;;21113741;28;20438;-79
2022/03/22 02:17:38;;;;;;;5.60;3.53;;;10.00;59.10;;;;;;21174939;23;20041;-79
2022/03/22 02:27:39;;;;;;;5.75;3.53;;;10.00;59.00;;;;;;20812937;28;20392;-78
2022/03/22 02:37:39;;;;;;;5.57;3.17;;;10.00;59.00;;;;;;20795087;28;20041;-78
2022/03/22 02:47:40;;;;;;;6.25;3.90;;;10.00;59.00;;;;;;20794487;28;20038;-78
2022/03/22 02:57:41;;;;;;;6.95;3.90;;;10.00;58.90;;;;;;20810212;28;20064;-78
2022/03/22 03:07:41;;;;;;;5.55;3.22;;;10.00;58.90;;;;;;20793411;28;20110;-78
2022/03/22 03:17:42;;;;;;;5.88;3.85;;;9.90;58.80;;;;;;20808485;28;20052;-77
2022/03/22 03:27:42;;;;;;;5.05;3.45;;;10.00;58.80;;;;;;20807711;28;20029;-78
2022/03/22 03:37:46;;;;;;;7.05;3.42;;;9.90;58.80;;;;;;20808046;28;20167;-78
2022/03/22 03:47:46;;;;;;;8.25;3.80;;;9.90;58.70;;;;;;20806880;28;20038;-78
2022/03/22 03:57:48;;;;;;;6.53;3.78;;;9.90;58.80;;;;;;20806234;28;20033;-77
2022/03/22 04:07:49;;;;;;;4.70;3.35;;;9.90;58.80;;;;;;20805699;28;20061;-79
2022/03/22 04:17:50;;;;;;;5.57;3.60;;;9.90;58.70;;;;;;20789910;28;20496;-78
2022/03/22 04:38:10;;;;;;;8.00;4.70;;;9.90;58.70;;;;;;20791596;28;20037;-78
2022/03/22 04:48:11;;;;;;;5.55;3.67;;;9.80;58.60;;;;;;20787788;28;20025;-78
2022/03/22 04:58:11;;;;;;;7.07;3.95;;;9.90;58.70;;;;;;20789259;28;20508;-78
2022/03/22 05:08:12;;;;;;;10.73;4.22;;;9.80;58.60;;;;;;20803722;28;20212;-78
2022/03/22 05:18:13;;;;;;;6.57;4.13;;;9.80;58.50;;;;;;20801095;28;20116;-77
2022/03/22 05:28:14;;;;;;;7.95;4.10;;;9.80;58.50;;;;;;20803146;28;20427;-78
2022/03/22 05:38:15;;;;;;;5.88;3.60;;;9.70;58.40;;;;;;20799864;28;20036;-78
2022/03/22 05:48:16;;;;;;;5.97;4.03;;;9.80;58.40;;;;;;20783540;28;20686;-78
2022/03/22 05:58:17;;;;;;;5.55;3.65;;;9.70;58.40;;;;;;20799705;28;20098;-78
2022/03/22 06:08:19;;;;;;;8.95;4.43;;;9.70;58.40;;;;;;20797970;28;20064;-79
2022/03/22 06:18:20;;;;;;;8.45;4.13;;;9.80;58.40;;;;;;20814569;28;20381;-78
2022/03/22 06:28:21;;;;;;;5.97;4.30;;;9.70;58.30;;;;;;20812403;28;20233;-81
2022/03/22 06:38:22;;;;;;;6.80;3.97;;;9.70;58.30;;;;;;20814014;28;20296;-77
2022/03/22 06:48:22;;;;;;;5.68;3.65;;;9.70;58.30;;;;;;20812653;28;20045;-77
2022/03/22 06:58:24;;;;;;;5.50;3.83;;;9.70;58.40;;;;;;20811262;28;20063;-77
2022/03/22 07:08:25;;;;;;;5.38;3.63;;;9.70;58.50;;;;;;20809880;28;20033;-75
2022/03/22 07:18:26;;;;;;;8.37;3.47;;;9.70;58.60;;;;;;20791769;28;20064;-78
2022/03/22 07:28:27;;;;;;;6.03;4.18;;;9.70;58.60;;;;;;20791036;28;20766;-73
2022/03/22 07:38:28;;;;;;;4.97;3.17;;;9.70;58.80;;;;;;20787016;28;20033;-80
2022/03/22 07:48:29;;;;;;;6.03;2.78;;;9.70;58.80;;;;;;20781442;28;20120;-79
2022/03/22 07:58:29;;;;;;;6.85;3.92;;;9.80;59.00;;;;;;20802185;28;20095;-76
2022/03/22 08:08:30;;;;;;;6.40;3.63;;;9.70;59.00;;;;;;20803502;28;20112;-76
2022/03/22 08:18:30;;;;;;;5.88;3.85;;;9.80;59.10;;;;;;20778259;28;20075;-77
2022/03/22 08:28:32;;;;;;;7.05;3.88;;;9.80;59.10;;;;;;20781039;28;20041;-79
2022/03/22 08:38:33;;;;;;;8.30;4.15;;;9.80;59.10;;;;;;20792999;28;20046;-78
2022/03/22 08:48:34;;;;;;;6.27;3.23;;;9.80;59.20;;;;;;20810632;28;20048;-79
2022/03/22 08:58:35;;;;;;;4.88;3.05;;;9.90;59.30;;;;;;20799614;28;20307;-78
2022/03/22 09:08:36;;;;;;;5.03;2.70;;;9.90;59.40;;;;;;20825007;28;20037;-79
2022/03/22 09:18:37;;;;;;;4.88;3.30;;;9.90;59.50;;;;;;20815831;28;20044;-79
2022/03/22 09:28:38;;;;;;;5.25;3.20;;;9.90;59.60;;;;;;20816284;28;20029;-78
2022/03/22 09:38:38;;;;;;;9.15;3.10;;;10.00;59.70;;;;;;20815587;28;20041;-78
2022/03/22 09:48:39;;;;;;;6.30;2.85;;;10.00;59.80;;;;;;20814810;28;20034;-78
2022/03/22 09:58:39;;;;;;;5.75;2.83;;;10.10;60.00;;;;;;20813245;28;20029;-79
2022/03/22 10:08:49;;;;;;;10.90;4.68;;;10.10;60.10;;;;;;20812277;28;20026;-78
2022/03/22 10:18:50;;;;;;;12.85;7.18;;;10.10;59.90;;;;;;20792260;28;20046;-76
2022/03/22 10:28:52;;;;;;;10.13;5.80;;;10.30;58.90;;;;;;20793072;28;20041;-76
2022/03/22 10:38:57;;;;;;;10.10;6.30;;;10.30;58.60;;;;;;20793211;28;20117;-75
2022/03/22 10:49:02;;;;;;;10.52;5.70;;;10.30;58.80;;;;;;20793632;28;20049;-75
2022/03/22 10:59:03;;;;;;;14.07;7.00;;;10.20;58.80;;;;;;20793829;28;20068;-79
2022/03/22 11:09:04;;;;;;;9.80;4.50;;;10.30;59.20;;;;;;20797547;28;20075;-78
2022/03/22 11:19:04;;;;;;;8.52;3.50;;;10.30;59.30;;;;;;20826063;28;20442;-79
2022/03/22 11:29:05;;;;;;;8.65;3.80;;;10.20;59.50;;;;;;20794415;28;20497;-76
2022/03/22 11:39:05;;;;;;;5.30;3.15;;;10.20;59.70;;;;;;20797924;28;20037;-78
2022/03/22 11:49:22;;;;;;;5.10;2.70;;;10.20;60.50;;;;;;20792629;28;20029;-79
2022/03/22 11:59:24;;;;;;;5.05;2.40;;;10.30;60.10;;;;;;20810198;28;20446;-79
2022/03/22 12:09:27;;;;;;;4.60;2.67;;;10.30;60.30;;;;;;20808552;28;20079;-77
2022/03/22 12:19:29;;;;;;;4.18;2.53;;;10.30;60.40;;;;;;20812878;28;20491;-77
2022/03/22 12:29:30;;;;;;;5.85;1.88;;;10.30;60.50;;;;;;20791498;28;20037;-77
2022/03/22 12:39:30;;;;;;;7.28;3.75;;;10.40;60.70;;;;;;20808902;28;20037;-76
2022/03/22 12:49:35;;;;;;;7.25;3.08;;;10.40;61.00;;;;;;20806596;28;20039;-76
2022/03/22 12:59:36;;;;;;;5.20;3.00;;;10.40;61.10;;;;;;20789220;28;20396;-77
2022/03/22 13:19:57;;;;;;;5.90;3.38;;;10.50;60.80;;;;;;20820225;28;20460;-78
2022/03/22 13:29:58;;;;;;;6.70;3.55;;;10.60;61.00;;;;;;20816450;28;20068;-78
2022/03/22 13:40:07;;;;;;;5.07;2.75;;;10.60;61.10;;;;;;20819230;28;20076;-76
2022/03/22 13:50:12;;;;;;;4.18;2.13;;;10.60;61.20;;;;;;20800926;28;20060;-76
2022/03/22 14:00:13;;;;;;;7.35;2.50;;;10.60;61.50;;;;;;20817822;28;20179;-77
2022/03/22 14:10:13;;;;;;;4.10;2.40;;;10.60;61.60;;;;;;20800901;28;20057;-78
2022/03/22 14:20:19;;;;;;;5.90;2.30;;;10.70;61.80;;;;;;20800611;28;20197;-78
2022/03/22 14:30:21;;;;;;;3.50;1.67;;;10.70;61.90;;;;;;20798638;28;20037;-79
2022/03/22 14:40:22;;;;;;;5.20;2.13;;;10.70;62.00;;;;;;20793496;28;20038;-77
2022/03/22 14:50:27;;;;;;;5.10;3.10;;;10.80;62.10;;;;;;20798280;28;20033;-77
2022/03/22 15:00:27;;;;;;;4.78;2.45;;;10.90;62.80;;;;;;20813191;28;20048;-75
2022/03/22 15:10:28;;;;;;;4.72;2.20;;;11.00;62.00;;;;;;20812957;28;20045;-73
2022/03/22 15:20:29;;;;;;;8.00;2.30;;;11.10;62.60;;;;;;20811598;28;20053;-75
2022/03/22 15:30:30;;;;;;;6.25;1.77;;;11.20;61.80;;;;;;20810962;28;20399;-78
2022/03/22 15:40:31;;;;;;;3.95;1.95;;;11.20;61.40;;;;;;20811862;28;20047;-76
2022/03/22 15:50:32;;;;;;;2.72;2.00;;;11.30;61.10;;;;;;20827816;28;20116;-74
2022/03/22 16:00:32;;;;;;;3.50;1.80;;;11.40;61.00;;;;;;20807544;28;20043;-77
2022/03/22 16:10:33;;;;;;;7.00;1.80;;;11.50;60.80;;;;;;20806300;28;20033;-78
2022/03/22 16:20:33;;;;;;;5.90;1.83;;;11.50;60.70;;;;;;20821226;28;20502;-76
2022/03/22 16:30:34;;;;;;;2.85;1.63;;;11.50;60.80;;;;;;20789878;28;20120;-76
2022/03/22 16:40:39;;;;;;;4.35;1.63;;;11.50;60.70;;;;;;20804714;28;20292;-73
2022/03/22 16:50:40;;;;;;;5.30;2.08;;;11.60;60.80;;;;;;20722883;28;20121;-74
2022/03/22 17:00:41;;;;;;;4.60;1.77;;;11.60;60.90;;;;;;20744773;28;20038;-74
2022/03/22 17:10:42;;;;;;;6.32;2.00;;;11.70;61.00;;;;;;20752572;28;20499;-77
2022/03/22 17:20:42;;;;;;;7.03;2.20;;;11.80;61.20;;;;;;20751358;28;20046;-77
2022/03/22 17:30:43;;;;;;;4.85;2.00;;;11.70;61.30;;;;;;20754375;28;20038;-76
2022/03/22 17:40:45;;;;;;;3.65;2.10;;;11.60;61.40;;;;;;20752626;28;20091;-79
2022/03/22 17:50:45;;;;;;;5.97;2.00;;;11.50;61.50;;;;;;20750469;28;20683;-79
2022/03/22 18:00:46;;;;;;;6.35;2.85;;;11.40;61.60;;;;;;20748419;28;20120;-77
2022/03/22 18:10:47;;;;;;;8.77;1.85;;;11.40;62.40;;;;;;20751072;28;20030;-76
2022/03/22 18:20:48;;;;;;;4.38;2.20;;;11.30;61.70;;;;;;20750538;28;20065;-80
2022/03/22 18:30:48;;;;;;;3.10;1.65;;;11.30;61.70;;;;;;20753066;28;20484;-80
2022/03/22 18:40:49;;;;;;;3.58;1.73;;;11.20;61.60;;;;;;20752836;28;20038;-80
2022/03/22 18:50:51;;;;;;;6.63;2.33;;;11.20;61.70;;;;;;20810567;28;20426;-80
2022/03/22 19:00:51;;;;;;;4.32;2.33;;;11.20;61.70;;;;;;20799396;28;20136;-81
2022/03/22 19:10:52;;;;;;;7.05;2.50;;;11.10;61.60;;;;;;20798851;28;20523;-81
2022/03/22 19:20:52;;;;;;;6.68;2.22;;;11.10;61.50;;;;;;20797634;28;20498;-82
2022/03/22 19:41:12;;;;;;;4.70;2.20;;;11.00;61.10;;;;;;20797914;28;20132;-81
2022/03/22 19:51:17;;;;;;;6.03;2.70;;;11.00;60.90;;;;;;20811792;28;20064;-81
2022/03/22 20:01:21;;;;;;;5.35;3.05;;;11.00;60.80;;;;;;20778072;28;20045;-82
2022/03/22 20:11:22;;;;;;;4.78;2.42;;;10.90;60.60;;;;;;20794326;28;20041;-81
2022/03/22 20:21:22;;;;;;;3.55;2.42;;;10.90;60.50;;;;;;20787728;28;20541;-80
2022/03/22 20:31:23;;;;;;;5.00;2.85;;;10.90;60.40;;;;;;20792453;28;20037;-82
2022/03/22 20:41:23;;;;;;;6.25;3.35;;;10.90;60.20;;;;;;20813046;28;20034;-81
2022/03/22 20:51:24;;;;;;;4.63;2.70;;;10.90;60.10;;;;;;20807390;28;20419;-81
2022/03/22 21:01:25;;;;;;;5.35;2.78;;;10.90;60.00;;;;;;20806749;28;20479;-82
2022/03/22 21:11:25;;;;;;;5.32;3.30;;;10.80;60.00;;;;;;20805900;28;20064;-82
2022/03/22 21:21:28;;;;;;;6.03;3.60;;;10.80;59.90;;;;;;20805336;28;20033;-82
2022/03/22 21:31:28;;;;;;;5.15;2.95;;;10.80;59.80;;;;;;20804188;28;20284;-81
2022/03/22 21:41:29;;;;;;;6.78;3.40;;;10.80;59.80;;;;;;20804022;28;20515;-81
2022/03/22 21:51:31;;;;;;;10.23;3.60;;;10.80;59.70;;;;;;20801225;28;20057;-81
2022/03/22 22:01:33;;;;;;;5.13;3.17;;;10.80;59.70;;;;;;20801327;28;20072;-81
2022/03/22 22:11:34;;;;;;;8.20;3.20;;;10.70;59.50;;;;;;20801844;28;20061;-81
2022/03/22 22:21:35;;;;;;;5.00;3.45;;;10.70;59.40;;;;;;20801646;28;20065;-82
2022/03/22 22:41:55;;;;;;;5.75;3.60;;;10.70;59.40;;;;;;20803963;28;20041;-82
2022/03/22 22:51:55;;;;;;;5.25;3.10;;;10.70;59.40;;;;;;20831660;28;20037;-82
2022/03/22 23:01:56;;;;;;;6.43;3.97;;;10.70;59.20;;;;;;20812968;28;20069;-81
2022/03/22 23:11:56;;;;;;;7.38;3.60;;;10.60;59.20;;;;;;20796614;28;20041;-82
2022/03/22 23:21:57;;;;;;;6.75;3.45;;;10.60;59.10;;;;;;20795635;28;20042;-81
2022/03/22 23:31:58;;;;;;;5.13;3.35;;;10.60;59.10;;;;;;20795569;28;20038;-82
2022/03/22 23:41:58;;;;;;;6.57;3.75;;;10.60;59.10;;;;;;20794399;28;20042;-82
2022/03/22 23:51:59;;;;;;;5.80;3.75;;;10.60;59.00;;;;;;20793199;28;20393;-81
